sensor_id;sensor_type;location;lat;lon;timestamp;P1;durP1;ratioP1;P2;durP2;ratioP2
21305;SDS011;10812;51.838;5.838;2023-02-10T00:00:29;39.50;;;22.40;;
21305;SDS011;10812;51.838;5.838;2023-02-10T00:02:57;42.53;;;24.10;;
21305;SDS011;10812;51.838;5.838;2023-02-10T00:05:26;47.73;;;23.37;;
21305;SDS011;10812;51.838;5.838;2023-02-10T00:07:55;42.37;;;23.17;;
21305;SDS011;10812;51.838;5.838;2023-02-10T00:10:23;36.67;;;22.23;;
21305;SDS011;10812;51.838;5.838;2023-02-10T00:12:51;45.40;;;24.70;;
21305;SDS011;10812;51.838;5.838;2023-02-10T00:15:19;44.63;;;23.70;;
21305;SDS011;10812;51.838;5.838;2023-02-10T00:17:47;47.07;;;23.60;;
21305;SDS011;10812;51.838;5.838;2023-02-10T00:20:16;39.90;;;21.90;;
21305;SDS011;10812;51.838;5.838;2023-02-10T00:22:44;40.23;;;23.30;;
21305;SDS011;10812;51.838;5.838;2023-02-10T00:25:13;41.87;;;22.80;;
21305;SDS011;10812;51.838;5.838;2023-02-10T00:27:42;50.63;;;25.13;;
21305;SDS011;10812;51.838;5.838;2023-02-10T00:30:10;45.20;;;23.07;;
21305;SDS011;10812;51.838;5.838;2023-02-10T00:32:39;38.40;;;24.03;;
21305;SDS011;10812;51.838;5.838;2023-02-10T00:35:07;44.17;;;23.20;;
21305;SDS011;10812;51.838;5.838;2023-02-10T00:37:35;38.40;;;23.07;;
21305;SDS011;10812;51.838;5.838;2023-02-10T00:40:04;39.27;;;23.67;;
21305;SDS011;10812;51.838;5.838;2023-02-10T00:42:33;48.63;;;24.73;;
21305;SDS011;10812;51.838;5.838;2023-02-10T00:45:02;38.97;;;22.77;;
21305;SDS011;10812;51.838;5.838;2023-02-10T00:47:30;42.90;;;23.57;;
21305;SDS011;10812;51.838;5.838;2023-02-10T00:49:58;45.07;;;25.07;;
21305;SDS011;10812;51.838;5.838;2023-02-10T00:52:26;51.27;;;26.10;;
21305;SDS011;10812;51.838;5.838;2023-02-10T00:54:54;47.50;;;25.83;;
21305;SDS011;10812;51.838;5.838;2023-02-10T00:57:22;57.90;;;28.20;;
21305;SDS011;10812;51.838;5.838;2023-02-10T00:59:52;51.27;;;27.37;;
21305;SDS011;10812;51.838;5.838;2023-02-10T01:02:20;54.97;;;28.50;;
21305;SDS011;10812;51.838;5.838;2023-02-10T01:04:49;61.83;;;29.10;;
21305;SDS011;10812;51.838;5.838;2023-02-10T01:07:17;66.70;;;31.63;;
21305;SDS011;10812;51.838;5.838;2023-02-10T01:09:45;62.87;;;31.73;;
21305;SDS011;10812;51.838;5.838;2023-02-10T01:12:14;59.50;;;30.70;;
21305;SDS011;10812;51.838;5.838;2023-02-10T01:14:42;61.37;;;29.63;;
21305;SDS011;10812;51.838;5.838;2023-02-10T01:17:11;62.57;;;29.37;;
21305;SDS011;10812;51.838;5.838;2023-02-10T01:19:39;55.03;;;29.23;;
21305;SDS011;10812;51.838;5.838;2023-02-10T01:22:07;46.83;;;25.23;;
21305;SDS011;10812;51.838;5.838;2023-02-10T01:24:35;45.20;;;26.57;;
21305;SDS011;10812;51.838;5.838;2023-02-10T01:27:03;39.73;;;25.30;;
21305;SDS011;10812;51.838;5.838;2023-02-10T01:29:32;45.80;;;24.70;;
21305;SDS011;10812;51.838;5.838;2023-02-10T01:32:00;46.07;;;25.23;;
21305;SDS011;10812;51.838;5.838;2023-02-10T01:34:29;45.23;;;24.20;;
21305;SDS011;10812;51.838;5.838;2023-02-10T01:36:57;54.63;;;26.37;;
21305;SDS011;10812;51.838;5.838;2023-02-10T01:39:25;66.57;;;30.37;;
21305;SDS011;10812;51.838;5.838;2023-02-10T01:41:53;63.30;;;32.10;;
21305;SDS011;10812;51.838;5.838;2023-02-10T01:47:38;64.87;;;32.37;;
21305;SDS011;10812;51.838;5.838;2023-02-10T01:50:08;59.13;;;30.07;;
21305;SDS011;10812;51.838;5.838;2023-02-10T01:52:37;54.77;;;27.77;;
21305;SDS011;10812;51.838;5.838;2023-02-10T01:55:08;58.87;;;28.10;;
21305;SDS011;10812;51.838;5.838;2023-02-10T01:57:37;56.00;;;27.63;;
21305;SDS011;10812;51.838;5.838;2023-02-10T02:00:10;48.53;;;26.13;;
21305;SDS011;10812;51.838;5.838;2023-02-10T02:02:39;49.07;;;27.10;;
21305;SDS011;10812;51.838;5.838;2023-02-10T02:05:19;53.70;;;28.40;;
21305;SDS011;10812;51.838;5.838;2023-02-10T02:07:49;48.97;;;27.97;;
21305;SDS011;10812;51.838;5.838;2023-02-10T02:10:18;44.37;;;24.83;;
21305;SDS011;10812;51.838;5.838;2023-02-10T02:12:48;47.83;;;25.20;;
21305;SDS011;10812;51.838;5.838;2023-02-10T02:15:26;52.57;;;27.40;;
21305;SDS011;10812;51.838;5.838;2023-02-10T02:18:02;57.77;;;27.87;;
21305;SDS011;10812;51.838;5.838;2023-02-10T02:20:51;53.20;;;27.33;;
21305;SDS011;10812;51.838;5.838;2023-02-10T02:26:51;49.20;;;26.93;;
21305;SDS011;10812;51.838;5.838;2023-02-10T02:32:33;45.07;;;25.27;;
21305;SDS011;10812;51.838;5.838;2023-02-10T02:35:07;52.27;;;26.90;;
21305;SDS011;10812;51.838;5.838;2023-02-10T02:37:39;49.40;;;26.00;;
21305;SDS011;10812;51.838;5.838;2023-02-10T02:40:10;45.47;;;25.63;;
21305;SDS011;10812;51.838;5.838;2023-02-10T02:42:39;43.90;;;24.50;;
21305;SDS011;10812;51.838;5.838;2023-02-10T03:06:08;44.00;;;25.70;;
21305;SDS011;10812;51.838;5.838;2023-02-10T03:08:37;49.00;;;25.63;;
21305;SDS011;10812;51.838;5.838;2023-02-10T03:11:07;53.30;;;26.87;;
21305;SDS011;10812;51.838;5.838;2023-02-10T03:13:35;51.93;;;24.27;;
21305;SDS011;10812;51.838;5.838;2023-02-10T03:16:04;55.10;;;27.43;;
21305;SDS011;10812;51.838;5.838;2023-02-10T03:18:32;54.90;;;27.70;;
21305;SDS011;10812;51.838;5.838;2023-02-10T03:21:00;56.53;;;27.83;;
21305;SDS011;10812;51.838;5.838;2023-02-10T03:23:30;57.93;;;29.27;;
21305;SDS011;10812;51.838;5.838;2023-02-10T03:25:58;54.93;;;28.87;;
21305;SDS011;10812;51.838;5.838;2023-02-10T03:28:26;60.30;;;29.57;;
21305;SDS011;10812;51.838;5.838;2023-02-10T03:30:55;52.27;;;26.33;;
21305;SDS011;10812;51.838;5.838;2023-02-10T03:33:23;63.53;;;28.13;;
21305;SDS011;10812;51.838;5.838;2023-02-10T03:35:51;50.90;;;26.50;;
21305;SDS011;10812;51.838;5.838;2023-02-10T03:38:20;56.40;;;29.37;;
21305;SDS011;10812;51.838;5.838;2023-02-10T03:40:50;61.57;;;28.67;;
21305;SDS011;10812;51.838;5.838;2023-02-10T03:43:19;64.17;;;30.10;;
21305;SDS011;10812;51.838;5.838;2023-02-10T03:45:48;59.63;;;29.87;;
21305;SDS011;10812;51.838;5.838;2023-02-10T03:48:16;57.77;;;29.13;;
21305;SDS011;10812;51.838;5.838;2023-02-10T03:50:44;53.57;;;28.03;;
21305;SDS011;10812;51.838;5.838;2023-02-10T03:53:12;54.63;;;28.20;;
21305;SDS011;10812;51.838;5.838;2023-02-10T03:55:41;50.93;;;27.47;;
21305;SDS011;10812;51.838;5.838;2023-02-10T03:58:10;53.73;;;27.17;;
21305;SDS011;10812;51.838;5.838;2023-02-10T04:00:38;51.20;;;28.60;;
21305;SDS011;10812;51.838;5.838;2023-02-10T04:03:06;51.13;;;28.83;;
21305;SDS011;10812;51.838;5.838;2023-02-10T04:05:34;54.63;;;28.57;;
21305;SDS011;10812;51.838;5.838;2023-02-10T04:08:03;52.33;;;29.47;;
21305;SDS011;10812;51.838;5.838;2023-02-10T04:10:31;55.03;;;28.23;;
21305;SDS011;10812;51.838;5.838;2023-02-10T04:13:00;57.87;;;28.77;;
21305;SDS011;10812;51.838;5.838;2023-02-10T04:15:29;53.50;;;27.27;;
21305;SDS011;10812;51.838;5.838;2023-02-10T04:17:57;55.97;;;28.20;;
21305;SDS011;10812;51.838;5.838;2023-02-10T04:20:26;55.47;;;28.23;;
21305;SDS011;10812;51.838;5.838;2023-02-10T04:22:54;54.93;;;27.20;;
21305;SDS011;10812;51.838;5.838;2023-02-10T04:25:22;49.90;;;26.97;;
21305;SDS011;10812;51.838;5.838;2023-02-10T04:27:50;50.70;;;28.20;;
21305;SDS011;10812;51.838;5.838;2023-02-10T04:30:18;50.53;;;28.43;;
21305;SDS011;10812;51.838;5.838;2023-02-10T04:32:48;52.77;;;28.53;;
21305;SDS011;10812;51.838;5.838;2023-02-10T04:35:16;49.43;;;27.53;;
21305;SDS011;10812;51.838;5.838;2023-02-10T04:37:44;50.73;;;28.10;;
21305;SDS011;10812;51.838;5.838;2023-02-10T04:40:12;59.50;;;28.80;;
21305;SDS011;10812;51.838;5.838;2023-02-10T04:42:40;52.60;;;27.20;;
21305;SDS011;10812;51.838;5.838;2023-02-10T04:45:08;57.73;;;29.40;;
21305;SDS011;10812;51.838;5.838;2023-02-10T04:47:36;56.63;;;28.80;;
21305;SDS011;10812;51.838;5.838;2023-02-10T04:50:06;56.27;;;28.00;;
21305;SDS011;10812;51.838;5.838;2023-02-10T04:52:35;58.83;;;28.87;;
21305;SDS011;10812;51.838;5.838;2023-02-10T04:55:03;54.53;;;29.07;;
21305;SDS011;10812;51.838;5.838;2023-02-10T04:57:31;57.63;;;29.10;;
21305;SDS011;10812;51.838;5.838;2023-02-10T04:59:59;48.93;;;26.60;;
21305;SDS011;10812;51.838;5.838;2023-02-10T05:02:27;57.60;;;29.87;;
21305;SDS011;10812;51.838;5.838;2023-02-10T05:04:55;63.53;;;29.10;;
21305;SDS011;10812;51.838;5.838;2023-02-10T05:07:25;63.03;;;29.20;;
21305;SDS011;10812;51.838;5.838;2023-02-10T05:09:53;56.97;;;29.63;;
21305;SDS011;10812;51.838;5.838;2023-02-10T05:12:24;62.37;;;30.90;;
21305;SDS011;10812;51.838;5.838;2023-02-10T05:14:52;54.53;;;30.00;;
21305;SDS011;10812;51.838;5.838;2023-02-10T05:17:20;55.37;;;28.53;;
21305;SDS011;10812;51.838;5.838;2023-02-10T05:19:48;60.60;;;29.73;;
21305;SDS011;10812;51.838;5.838;2023-02-10T05:22:16;57.10;;;29.13;;
21305;SDS011;10812;51.838;5.838;2023-02-10T05:24:46;56.50;;;29.23;;
21305;SDS011;10812;51.838;5.838;2023-02-10T05:27:15;60.63;;;31.53;;
21305;SDS011;10812;51.838;5.838;2023-02-10T05:29:44;54.63;;;30.17;;
21305;SDS011;10812;51.838;5.838;2023-02-10T05:32:12;60.80;;;30.47;;
21305;SDS011;10812;51.838;5.838;2023-02-10T05:34:40;58.93;;;31.03;;
21305;SDS011;10812;51.838;5.838;2023-02-10T05:37:08;74.40;;;33.97;;
21305;SDS011;10812;51.838;5.838;2023-02-10T05:39:37;59.43;;;31.30;;
21305;SDS011;10812;51.838;5.838;2023-02-10T05:42:07;59.87;;;29.70;;
21305;SDS011;10812;51.838;5.838;2023-02-10T05:44:36;61.33;;;30.40;;
21305;SDS011;10812;51.838;5.838;2023-02-10T05:47:04;59.60;;;30.57;;
21305;SDS011;10812;51.838;5.838;2023-02-10T05:49:32;63.50;;;31.27;;
21305;SDS011;10812;51.838;5.838;2023-02-10T05:52:00;61.13;;;32.10;;
21305;SDS011;10812;51.838;5.838;2023-02-10T05:54:28;65.70;;;31.00;;
21305;SDS011;10812;51.838;5.838;2023-02-10T05:56:57;64.00;;;30.37;;
21305;SDS011;10812;51.838;5.838;2023-02-10T05:59:26;63.33;;;30.80;;
21305;SDS011;10812;51.838;5.838;2023-02-10T06:01:55;57.17;;;29.73;;
21305;SDS011;10812;51.838;5.838;2023-02-10T06:04:23;59.53;;;30.00;;
21305;SDS011;10812;51.838;5.838;2023-02-10T06:06:51;60.70;;;32.63;;
21305;SDS011;10812;51.838;5.838;2023-02-10T06:09:20;61.03;;;31.90;;
21305;SDS011;10812;51.838;5.838;2023-02-10T06:11:49;54.60;;;28.83;;
21305;SDS011;10812;51.838;5.838;2023-02-10T06:14:18;55.07;;;29.07;;
21305;SDS011;10812;51.838;5.838;2023-02-10T06:16:47;65.30;;;30.47;;
21305;SDS011;10812;51.838;5.838;2023-02-10T06:19:15;64.60;;;32.63;;
21305;SDS011;10812;51.838;5.838;2023-02-10T06:21:46;65.27;;;31.53;;
21305;SDS011;10812;51.838;5.838;2023-02-10T06:24:14;66.83;;;33.30;;
21305;SDS011;10812;51.838;5.838;2023-02-10T06:26:42;63.43;;;32.13;;
21305;SDS011;10812;51.838;5.838;2023-02-10T06:29:10;74.10;;;35.60;;
21305;SDS011;10812;51.838;5.838;2023-02-10T06:31:38;74.67;;;36.40;;
21305;SDS011;10812;51.838;5.838;2023-02-10T06:34:08;82.17;;;36.37;;
21305;SDS011;10812;51.838;5.838;2023-02-10T06:36:36;80.70;;;36.83;;
21305;SDS011;10812;51.838;5.838;2023-02-10T06:39:04;84.23;;;37.10;;
21305;SDS011;10812;51.838;5.838;2023-02-10T06:41:32;91.53;;;38.37;;
21305;SDS011;10812;51.838;5.838;2023-02-10T06:44:01;97.43;;;38.80;;
21305;SDS011;10812;51.838;5.838;2023-02-10T06:46:29;79.53;;;35.93;;
21305;SDS011;10812;51.838;5.838;2023-02-10T06:48:57;82.47;;;35.30;;
21305;SDS011;10812;51.838;5.838;2023-02-10T06:51:29;81.17;;;37.17;;
21305;SDS011;10812;51.838;5.838;2023-02-10T06:53:57;77.00;;;34.43;;
21305;SDS011;10812;51.838;5.838;2023-02-10T06:56:25;86.97;;;36.27;;
21305;SDS011;10812;51.838;5.838;2023-02-10T06:58:53;82.20;;;33.70;;
21305;SDS011;10812;51.838;5.838;2023-02-10T07:01:21;91.57;;;34.03;;
21305;SDS011;10812;51.838;5.838;2023-02-10T07:03:49;79.40;;;32.53;;
21305;SDS011;10812;51.838;5.838;2023-02-10T07:06:17;68.07;;;32.90;;
21305;SDS011;10812;51.838;5.838;2023-02-10T07:08:47;77.00;;;32.93;;
21305;SDS011;10812;51.838;5.838;2023-02-10T07:11:16;76.93;;;32.30;;
21305;SDS011;10812;51.838;5.838;2023-02-10T07:13:45;89.50;;;32.03;;
21305;SDS011;10812;51.838;5.838;2023-02-10T07:16:13;73.27;;;31.77;;
21305;SDS011;10812;51.838;5.838;2023-02-10T07:18:43;75.67;;;31.60;;
21305;SDS011;10812;51.838;5.838;2023-02-10T07:21:11;71.03;;;32.30;;
21305;SDS011;10812;51.838;5.838;2023-02-10T07:23:39;71.53;;;31.33;;
21305;SDS011;10812;51.838;5.838;2023-02-10T07:26:09;67.80;;;29.27;;
21305;SDS011;10812;51.838;5.838;2023-02-10T07:28:38;71.27;;;31.20;;
21305;SDS011;10812;51.838;5.838;2023-02-10T07:31:06;76.83;;;30.30;;
21305;SDS011;10812;51.838;5.838;2023-02-10T07:33:34;72.50;;;30.90;;
21305;SDS011;10812;51.838;5.838;2023-02-10T07:36:04;66.80;;;27.67;;
21305;SDS011;10812;51.838;5.838;2023-02-10T07:38:33;65.47;;;28.63;;
21305;SDS011;10812;51.838;5.838;2023-02-10T07:41:02;69.17;;;28.33;;
21305;SDS011;10812;51.838;5.838;2023-02-10T07:43:31;63.53;;;28.63;;
21305;SDS011;10812;51.838;5.838;2023-02-10T07:46:00;61.70;;;29.03;;
21305;SDS011;10812;51.838;5.838;2023-02-10T07:48:28;71.43;;;30.47;;
21305;SDS011;10812;51.838;5.838;2023-02-10T07:50:56;67.17;;;28.63;;
21305;SDS011;10812;51.838;5.838;2023-02-10T07:53:24;62.70;;;28.13;;
21305;SDS011;10812;51.838;5.838;2023-02-10T07:55:52;58.57;;;27.50;;
21305;SDS011;10812;51.838;5.838;2023-02-10T07:58:21;58.20;;;27.53;;
21305;SDS011;10812;51.838;5.838;2023-02-10T08:00:50;62.33;;;26.10;;
21305;SDS011;10812;51.838;5.838;2023-02-10T08:03:18;69.07;;;29.27;;
21305;SDS011;10812;51.838;5.838;2023-02-10T08:05:46;69.60;;;29.37;;
21305;SDS011;10812;51.838;5.838;2023-02-10T08:08:15;70.47;;;27.97;;
21305;SDS011;10812;51.838;5.838;2023-02-10T08:10:43;59.67;;;26.37;;
21305;SDS011;10812;51.838;5.838;2023-02-10T08:13:12;63.03;;;27.30;;
21305;SDS011;10812;51.838;5.838;2023-02-10T08:15:40;63.40;;;26.97;;
21305;SDS011;10812;51.838;5.838;2023-02-10T08:18:09;75.27;;;28.37;;
21305;SDS011;10812;51.838;5.838;2023-02-10T08:20:37;63.63;;;26.57;;
21305;SDS011;10812;51.838;5.838;2023-02-10T08:23:06;59.73;;;27.30;;
21305;SDS011;10812;51.838;5.838;2023-02-10T08:25:40;75.07;;;28.53;;
21305;SDS011;10812;51.838;5.838;2023-02-10T08:28:08;68.70;;;27.70;;
21305;SDS011;10812;51.838;5.838;2023-02-10T08:30:36;62.40;;;26.93;;
21305;SDS011;10812;51.838;5.838;2023-02-10T08:33:04;61.30;;;27.27;;
21305;SDS011;10812;51.838;5.838;2023-02-10T08:35:35;60.10;;;26.83;;
21305;SDS011;10812;51.838;5.838;2023-02-10T08:38:04;55.80;;;26.37;;
21305;SDS011;10812;51.838;5.838;2023-02-10T08:40:35;58.80;;;28.57;;
21305;SDS011;10812;51.838;5.838;2023-02-10T08:43:03;60.17;;;27.30;;
21305;SDS011;10812;51.838;5.838;2023-02-10T08:45:31;58.80;;;26.73;;
21305;SDS011;10812;51.838;5.838;2023-02-10T08:47:59;58.83;;;28.53;;
21305;SDS011;10812;51.838;5.838;2023-02-10T08:50:28;63.27;;;26.13;;
21305;SDS011;10812;51.838;5.838;2023-02-10T08:52:58;60.63;;;26.60;;
21305;SDS011;10812;51.838;5.838;2023-02-10T08:55:26;59.33;;;26.63;;
21305;SDS011;10812;51.838;5.838;2023-02-10T08:57:54;65.77;;;29.03;;
21305;SDS011;10812;51.838;5.838;2023-02-10T09:00:22;57.67;;;26.70;;
21305;SDS011;10812;51.838;5.838;2023-02-10T09:02:50;62.40;;;27.70;;
21305;SDS011;10812;51.838;5.838;2023-02-10T09:05:19;63.60;;;25.70;;
21305;SDS011;10812;51.838;5.838;2023-02-10T09:07:47;59.17;;;26.53;;
21305;SDS011;10812;51.838;5.838;2023-02-10T09:10:16;63.33;;;27.93;;
21305;SDS011;10812;51.838;5.838;2023-02-10T09:12:45;65.47;;;27.17;;
21305;SDS011;10812;51.838;5.838;2023-02-10T09:15:14;62.17;;;26.50;;
21305;SDS011;10812;51.838;5.838;2023-02-10T09:17:42;55.00;;;26.27;;
21305;SDS011;10812;51.838;5.838;2023-02-10T09:20:11;63.77;;;26.63;;
21305;SDS011;10812;51.838;5.838;2023-02-10T09:22:39;65.17;;;26.60;;
21305;SDS011;10812;51.838;5.838;2023-02-10T09:25:07;61.93;;;26.30;;
21305;SDS011;10812;51.838;5.838;2023-02-10T09:27:37;59.37;;;25.00;;
21305;SDS011;10812;51.838;5.838;2023-02-10T09:30:05;64.57;;;28.73;;
21305;SDS011;10812;51.838;5.838;2023-02-10T09:32:34;67.30;;;28.23;;
21305;SDS011;10812;51.838;5.838;2023-02-10T09:35:02;60.53;;;25.80;;
21305;SDS011;10812;51.838;5.838;2023-02-10T09:37:30;58.53;;;24.93;;
21305;SDS011;10812;51.838;5.838;2023-02-10T09:39:58;58.27;;;25.90;;
21305;SDS011;10812;51.838;5.838;2023-02-10T09:42:29;61.00;;;26.10;;
21305;SDS011;10812;51.838;5.838;2023-02-10T09:45:12;65.23;;;25.53;;
21305;SDS011;10812;51.838;5.838;2023-02-10T09:47:47;63.47;;;26.03;;
21305;SDS011;10812;51.838;5.838;2023-02-10T09:50:26;68.47;;;26.63;;
21305;SDS011;10812;51.838;5.838;2023-02-10T09:53:02;62.30;;;25.60;;
21305;SDS011;10812;51.838;5.838;2023-02-10T09:55:37;65.00;;;26.87;;
21305;SDS011;10812;51.838;5.838;2023-02-10T09:58:13;78.50;;;28.07;;
21305;SDS011;10812;51.838;5.838;2023-02-10T10:00:48;67.27;;;26.83;;
21305;SDS011;10812;51.838;5.838;2023-02-10T10:03:24;72.87;;;27.70;;
21305;SDS011;10812;51.838;5.838;2023-02-10T10:05:59;74.93;;;30.87;;
21305;SDS011;10812;51.838;5.838;2023-02-10T10:08:34;63.93;;;26.70;;
21305;SDS011;10812;51.838;5.838;2023-02-10T10:11:15;76.33;;;29.17;;
21305;SDS011;10812;51.838;5.838;2023-02-10T10:13:52;74.77;;;29.13;;
21305;SDS011;10812;51.838;5.838;2023-02-10T10:16:33;72.37;;;26.73;;
21305;SDS011;10812;51.838;5.838;2023-02-10T10:19:25;69.83;;;24.63;;
21305;SDS011;10812;51.838;5.838;2023-02-10T10:22:03;67.93;;;26.87;;
21305;SDS011;10812;51.838;5.838;2023-02-10T10:24:51;59.20;;;26.67;;
21305;SDS011;10812;51.838;5.838;2023-02-10T10:27:32;70.70;;;27.83;;
21305;SDS011;10812;51.838;5.838;2023-02-10T10:30:14;58.20;;;25.30;;
21305;SDS011;10812;51.838;5.838;2023-02-10T10:32:46;70.77;;;26.83;;
21305;SDS011;10812;51.838;5.838;2023-02-10T10:35:20;62.30;;;25.70;;
21305;SDS011;10812;51.838;5.838;2023-02-10T10:37:53;62.63;;;25.87;;
21305;SDS011;10812;51.838;5.838;2023-02-10T10:40:22;58.00;;;24.30;;
21305;SDS011;10812;51.838;5.838;2023-02-10T10:42:55;53.93;;;24.33;;
21305;SDS011;10812;51.838;5.838;2023-02-10T10:45:28;56.70;;;25.13;;
21305;SDS011;10812;51.838;5.838;2023-02-10T10:48:00;55.20;;;24.13;;
21305;SDS011;10812;51.838;5.838;2023-02-10T10:50:33;54.07;;;23.60;;
21305;SDS011;10812;51.838;5.838;2023-02-10T10:53:03;56.50;;;23.67;;
21305;SDS011;10812;51.838;5.838;2023-02-10T10:55:42;56.83;;;24.43;;
21305;SDS011;10812;51.838;5.838;2023-02-10T10:58:18;53.23;;;23.87;;
21305;SDS011;10812;51.838;5.838;2023-02-10T11:00:54;55.40;;;24.10;;
21305;SDS011;10812;51.838;5.838;2023-02-10T11:03:23;55.93;;;24.60;;
21305;SDS011;10812;51.838;5.838;2023-02-10T11:06:02;51.43;;;22.27;;
21305;SDS011;10812;51.838;5.838;2023-02-10T11:08:33;48.90;;;22.20;;
21305;SDS011;10812;51.838;5.838;2023-02-10T11:11:04;50.97;;;23.23;;
21305;SDS011;10812;51.838;5.838;2023-02-10T11:13:37;47.37;;;22.23;;
21305;SDS011;10812;51.838;5.838;2023-02-10T11:16:10;49.50;;;21.80;;
21305;SDS011;10812;51.838;5.838;2023-02-10T11:18:50;44.10;;;20.83;;
21305;SDS011;10812;51.838;5.838;2023-02-10T11:21:19;47.53;;;19.97;;
21305;SDS011;10812;51.838;5.838;2023-02-10T11:23:48;41.20;;;19.67;;
21305;SDS011;10812;51.838;5.838;2023-02-10T11:26:18;42.07;;;18.33;;
21305;SDS011;10812;51.838;5.838;2023-02-10T11:28:47;39.63;;;17.87;;
21305;SDS011;10812;51.838;5.838;2023-02-10T11:31:24;41.50;;;18.13;;
21305;SDS011;10812;51.838;5.838;2023-02-10T11:33:58;40.23;;;18.73;;
21305;SDS011;10812;51.838;5.838;2023-02-10T11:36:30;38.83;;;17.70;;
21305;SDS011;10812;51.838;5.838;2023-02-10T11:39:04;40.93;;;18.17;;
21305;SDS011;10812;51.838;5.838;2023-02-10T11:41:45;43.47;;;19.03;;
21305;SDS011;10812;51.838;5.838;2023-02-10T11:44:20;42.93;;;19.00;;
21305;SDS011;10812;51.838;5.838;2023-02-10T11:46:57;41.93;;;17.67;;
21305;SDS011;10812;51.838;5.838;2023-02-10T11:49:28;35.30;;;16.27;;
21305;SDS011;10812;51.838;5.838;2023-02-10T11:51:59;39.50;;;17.50;;
21305;SDS011;10812;51.838;5.838;2023-02-10T11:54:29;34.77;;;15.23;;
21305;SDS011;10812;51.838;5.838;2023-02-10T12:00:15;30.73;;;13.57;;
21305;SDS011;10812;51.838;5.838;2023-02-10T12:05:43;30.10;;;13.97;;
21305;SDS011;10812;51.838;5.838;2023-02-10T12:08:20;35.93;;;13.63;;
21305;SDS011;10812;51.838;5.838;2023-02-10T12:10:55;27.67;;;12.50;;
21305;SDS011;10812;51.838;5.838;2023-02-10T12:13:29;28.47;;;12.60;;
21305;SDS011;10812;51.838;5.838;2023-02-10T12:16:04;25.87;;;11.40;;
21305;SDS011;10812;51.838;5.838;2023-02-10T12:18:46;25.53;;;11.87;;
21305;SDS011;10812;51.838;5.838;2023-02-10T12:21:32;19.27;;;9.83;;
21305;SDS011;10812;51.838;5.838;2023-02-10T12:24:22;25.07;;;11.00;;
21305;SDS011;10812;51.838;5.838;2023-02-10T12:27:07;21.87;;;10.73;;
21305;SDS011;10812;51.838;5.838;2023-02-10T12:29:43;24.13;;;11.00;;
21305;SDS011;10812;51.838;5.838;2023-02-10T12:32:23;22.53;;;10.57;;
21305;SDS011;10812;51.838;5.838;2023-02-10T12:37:59;26.40;;;10.23;;
21305;SDS011;10812;51.838;5.838;2023-02-10T12:40:39;20.70;;;10.20;;
21305;SDS011;10812;51.838;5.838;2023-02-10T12:43:26;21.47;;;10.23;;
21305;SDS011;10812;51.838;5.838;2023-02-10T12:46:12;24.93;;;9.50;;
21305;SDS011;10812;51.838;5.838;2023-02-10T12:48:56;22.47;;;9.70;;
21305;SDS011;10812;51.838;5.838;2023-02-10T12:51:45;15.33;;;7.80;;
21305;SDS011;10812;51.838;5.838;2023-02-10T12:54:23;22.07;;;9.40;;
21305;SDS011;10812;51.838;5.838;2023-02-10T12:57:09;19.37;;;8.47;;
21305;SDS011;10812;51.838;5.838;2023-02-10T12:59:45;23.03;;;9.77;;
21305;SDS011;10812;51.838;5.838;2023-02-10T13:02:22;21.27;;;8.73;;
21305;SDS011;10812;51.838;5.838;2023-02-10T13:04:56;21.20;;;9.00;;
21305;SDS011;10812;51.838;5.838;2023-02-10T13:07:34;22.17;;;9.47;;
21305;SDS011;10812;51.838;5.838;2023-02-10T13:10:09;22.27;;;9.80;;
21305;SDS011;10812;51.838;5.838;2023-02-10T13:12:48;23.13;;;10.67;;
21305;SDS011;10812;51.838;5.838;2023-02-10T13:15:18;19.43;;;8.90;;
21305;SDS011;10812;51.838;5.838;2023-02-10T13:17:51;19.23;;;8.37;;
21305;SDS011;10812;51.838;5.838;2023-02-10T13:23:13;18.97;;;8.27;;
21305;SDS011;10812;51.838;5.838;2023-02-10T13:25:49;21.63;;;8.90;;
21305;SDS011;10812;51.838;5.838;2023-02-10T13:28:29;20.93;;;9.93;;
21305;SDS011;10812;51.838;5.838;2023-02-10T13:31:15;27.60;;;10.27;;
21305;SDS011;10812;51.838;5.838;2023-02-10T13:33:53;21.53;;;10.27;;
21305;SDS011;10812;51.838;5.838;2023-02-10T13:36:29;23.20;;;10.50;;
21305;SDS011;10812;51.838;5.838;2023-02-10T13:39:04;26.27;;;10.97;;
21305;SDS011;10812;51.838;5.838;2023-02-10T13:41:40;19.77;;;10.13;;
21305;SDS011;10812;51.838;5.838;2023-02-10T13:44:19;24.93;;;11.47;;
21305;SDS011;10812;51.838;5.838;2023-02-10T13:47:08;23.80;;;10.77;;
21305;SDS011;10812;51.838;5.838;2023-02-10T13:49:47;21.70;;;10.80;;
21305;SDS011;10812;51.838;5.838;2023-02-10T13:52:18;22.73;;;11.47;;
21305;SDS011;10812;51.838;5.838;2023-02-10T13:54:55;22.33;;;11.33;;
21305;SDS011;10812;51.838;5.838;2023-02-10T13:57:27;32.37;;;14.27;;
21305;SDS011;10812;51.838;5.838;2023-02-10T14:00:11;23.83;;;12.67;;
21305;SDS011;10812;51.838;5.838;2023-02-10T14:02:42;28.10;;;13.00;;
21305;SDS011;10812;51.838;5.838;2023-02-10T14:05:22;26.57;;;13.97;;
21305;SDS011;10812;51.838;5.838;2023-02-10T14:07:52;33.03;;;16.83;;
21305;SDS011;10812;51.838;5.838;2023-02-10T14:10:28;29.10;;;15.33;;
21305;SDS011;10812;51.838;5.838;2023-02-10T14:12:59;30.17;;;16.90;;
21305;SDS011;10812;51.838;5.838;2023-02-10T14:15:31;32.77;;;17.40;;
21305;SDS011;10812;51.838;5.838;2023-02-10T14:18:02;37.13;;;18.70;;
21305;SDS011;10812;51.838;5.838;2023-02-10T14:20:35;41.77;;;18.63;;
21305;SDS011;10812;51.838;5.838;2023-02-10T14:23:05;40.87;;;20.27;;
21305;SDS011;10812;51.838;5.838;2023-02-10T14:25:37;41.30;;;20.40;;
21305;SDS011;10812;51.838;5.838;2023-02-10T14:28:15;39.93;;;23.30;;
21305;SDS011;10812;51.838;5.838;2023-02-10T14:30:50;45.83;;;26.73;;
21305;SDS011;10812;51.838;5.838;2023-02-10T14:33:24;47.90;;;26.90;;
21305;SDS011;10812;51.838;5.838;2023-02-10T14:35:54;48.73;;;27.23;;
21305;SDS011;10812;51.838;5.838;2023-02-10T14:38:24;50.33;;;29.33;;
21305;SDS011;10812;51.838;5.838;2023-02-10T14:40:56;49.10;;;29.87;;
21305;SDS011;10812;51.838;5.838;2023-02-10T14:43:44;52.23;;;28.47;;
21305;SDS011;10812;51.838;5.838;2023-02-10T14:46:18;51.97;;;28.83;;
21305;SDS011;10812;51.838;5.838;2023-02-10T14:48:48;52.03;;;28.97;;
21305;SDS011;10812;51.838;5.838;2023-02-10T14:51:18;48.13;;;28.77;;
21305;SDS011;10812;51.838;5.838;2023-02-10T14:53:48;52.43;;;30.10;;
21305;SDS011;10812;51.838;5.838;2023-02-10T14:56:19;58.53;;;32.63;;
21305;SDS011;10812;51.838;5.838;2023-02-10T14:58:54;47.63;;;28.57;;
21305;SDS011;10812;51.838;5.838;2023-02-10T15:01:23;51.30;;;29.50;;
21305;SDS011;10812;51.838;5.838;2023-02-10T15:03:54;49.40;;;29.73;;
21305;SDS011;10812;51.838;5.838;2023-02-10T15:06:24;45.10;;;27.00;;
21305;SDS011;10812;51.838;5.838;2023-02-10T15:08:55;42.70;;;27.63;;
21305;SDS011;10812;51.838;5.838;2023-02-10T15:11:29;47.47;;;27.10;;
21305;SDS011;10812;51.838;5.838;2023-02-10T15:14:17;39.37;;;23.73;;
21305;SDS011;10812;51.838;5.838;2023-02-10T15:16:49;41.97;;;22.90;;
21305;SDS011;10812;51.838;5.838;2023-02-10T15:19:18;41.17;;;23.83;;
21305;SDS011;10812;51.838;5.838;2023-02-10T15:21:46;34.27;;;21.80;;
21305;SDS011;10812;51.838;5.838;2023-02-10T15:24:22;40.50;;;22.03;;
21305;SDS011;10812;51.838;5.838;2023-02-10T15:26:55;33.27;;;20.00;;